createdAt,value
2018-05-31T00:01:33.228Z,99.90
2018-05-31T00:04:00.758Z,99.90
2018-05-31T00:06:28.294Z,99.90
2018-05-31T00:08:56.005Z,99.90
2018-05-31T00:11:23.527Z,99.90
2018-05-31T00:13:52.529Z,99.90
2018-05-31T00:16:27.873Z,99.90
2018-05-31T00:18:55.713Z,99.90
2018-05-31T00:21:23.277Z,99.90
2018-05-31T00:23:50.779Z,99.90
2018-05-31T00:26:18.362Z,99.90
2018-05-31T00:28:45.916Z,99.90
2018-05-31T00:31:18.161Z,99.90
2018-05-31T00:33:45.718Z,99.90
2018-05-31T00:36:13.270Z,99.90
2018-05-31T00:38:40.744Z,99.90
2018-05-31T00:41:10.001Z,99.90
2018-05-31T00:43:37.704Z,99.90
2018-05-31T00:46:10.165Z,99.90
2018-05-31T00:48:37.685Z,99.90
2018-05-31T00:51:05.224Z,99.90
2018-05-31T00:53:33.577Z,99.90
2018-05-31T00:56:13.561Z,99.90
2018-05-31T00:58:41.478Z,99.90
2018-05-31T01:01:12.744Z,99.90
2018-05-31T01:03:40.321Z,99.90
2018-05-31T01:06:07.841Z,99.90
2018-05-31T01:08:35.296Z,99.90
2018-05-31T01:11:02.937Z,99.90
2018-05-31T01:13:31.174Z,99.90
2018-05-31T01:16:01.805Z,99.90
2018-05-31T01:18:29.271Z,99.90
2018-05-31T01:20:56.773Z,99.90
2018-05-31T01:23:24.231Z,99.90
2018-05-31T01:25:51.716Z,99.90
2018-05-31T01:28:19.297Z,99.90
2018-05-31T01:30:46.829Z,99.90
2018-05-31T01:33:15.925Z,99.90
2018-05-31T01:35:43.422Z,99.90
2018-05-31T01:38:22.696Z,99.90
2018-05-31T01:40:50.165Z,99.90
2018-05-31T01:43:17.668Z,99.90
2018-05-31T01:45:46.836Z,99.90
2018-05-31T01:48:18.064Z,99.90
2018-05-31T01:50:45.579Z,99.90
2018-05-31T01:53:13.332Z,99.90
2018-05-31T01:55:42.755Z,99.90
2018-05-31T01:58:10.225Z,99.90
2018-05-31T02:00:37.756Z,99.90
2018-05-31T02:03:06.095Z,99.90
2018-05-31T02:05:33.656Z,99.90
2018-05-31T02:08:01.142Z,99.90
2018-05-31T02:10:29.389Z,99.90
2018-05-31T02:12:56.848Z,99.90
2018-05-31T02:15:25.280Z,99.90
2018-05-31T02:17:52.781Z,99.90
2018-05-31T02:20:20.256Z,99.90
2018-05-31T02:22:48.798Z,99.90
2018-05-31T02:25:16.280Z,99.90
2018-05-31T02:27:44.329Z,99.90
2018-05-31T02:30:11.816Z,99.90
2018-05-31T02:32:39.317Z,99.90
2018-05-31T02:35:06.817Z,99.90
2018-05-31T02:37:34.461Z,99.90
2018-05-31T02:40:01.964Z,99.90
2018-05-31T02:42:29.476Z,99.90
2018-05-31T02:44:57.259Z,99.90
2018-05-31T02:47:25.500Z,99.90
2018-05-31T02:49:52.987Z,99.90
2018-05-31T02:52:20.455Z,99.90
2018-05-31T02:54:48.021Z,99.90
2018-05-31T02:57:15.580Z,99.90
2018-05-31T02:59:43.129Z,99.90
2018-05-31T03:02:10.656Z,99.90
2018-05-31T03:04:38.157Z,99.90
2018-05-31T03:07:07.148Z,99.90
2018-05-31T03:09:34.628Z,99.90
2018-05-31T03:12:02.115Z,99.90
2018-05-31T03:14:29.587Z,99.90
2018-05-31T03:16:57.063Z,99.90
2018-05-31T03:19:25.324Z,99.90
2018-05-31T03:21:52.811Z,99.90
2018-05-31T03:24:20.274Z,99.90
2018-05-31T03:26:47.773Z,99.90
2018-05-31T03:29:15.253Z,99.90
2018-05-31T03:31:42.861Z,99.90
2018-05-31T03:34:10.349Z,99.90
2018-05-31T03:36:37.922Z,99.90
2018-05-31T03:39:05.390Z,99.90
2018-05-31T03:41:32.900Z,99.90
2018-05-31T03:44:00.369Z,99.90
2018-05-31T03:46:28.353Z,99.90
2018-05-31T03:48:59.389Z,99.90
2018-05-31T03:51:27.008Z,99.90
2018-05-31T03:53:55.271Z,99.90
2018-05-31T03:56:23.581Z,99.90
2018-05-31T03:58:51.052Z,99.90
2018-05-31T04:01:18.552Z,99.90
2018-05-31T04:03:46.157Z,99.90
2018-05-31T04:06:13.624Z,99.90
2018-05-31T04:08:41.116Z,99.90
2018-05-31T04:11:08.612Z,99.90
2018-05-31T04:13:37.602Z,99.90
2018-05-31T04:16:05.084Z,99.90
2018-05-31T04:18:32.602Z,99.90
2018-05-31T04:21:00.098Z,99.90
2018-05-31T04:23:27.565Z,99.90
2018-05-31T04:25:55.045Z,99.90
2018-05-31T04:28:22.527Z,99.90
2018-05-31T04:30:50.921Z,99.90
2018-05-31T04:33:18.431Z,99.90
2018-05-31T04:35:45.899Z,99.90
2018-05-31T04:38:14.932Z,99.90
2018-05-31T04:40:42.388Z,99.90
2018-05-31T04:43:09.923Z,99.90
2018-05-31T04:45:37.379Z,99.90
2018-05-31T04:48:05.081Z,99.90
2018-05-31T04:50:32.548Z,99.90
2018-05-31T04:53:00.114Z,99.90
2018-05-31T04:55:27.868Z,99.90
2018-05-31T04:57:55.613Z,99.90
2018-05-31T05:00:23.995Z,99.90
2018-05-31T05:02:51.490Z,99.90
2018-05-31T05:05:31.261Z,99.70
2018-05-31T05:07:58.750Z,98.10
2018-05-31T05:10:26.205Z,97.30
2018-05-31T05:12:53.711Z,96.00
2018-05-31T05:15:21.240Z,95.30
2018-05-31T05:17:49.481Z,94.70
2018-05-31T05:20:21.375Z,94.00
2018-05-31T05:22:48.839Z,93.10
2018-05-31T05:25:16.322Z,92.10
2018-05-31T05:27:44.391Z,91.70
2018-05-31T05:30:11.881Z,91.70
2018-05-31T05:32:39.332Z,91.60
2018-05-31T05:35:06.818Z,91.20
2018-05-31T05:37:46.897Z,92.40
2018-05-31T05:40:14.356Z,92.40
2018-05-31T05:42:41.836Z,93.40
2018-05-31T05:45:11.005Z,94.20
2018-05-31T05:47:38.768Z,94.20
2018-05-31T05:50:06.554Z,94.30
2018-05-31T05:52:38.735Z,94.80
2018-05-31T05:55:06.209Z,95.70
2018-05-31T05:57:33.716Z,96.10
2018-05-31T06:00:01.216Z,96.30
2018-05-31T06:02:28.676Z,96.30
2018-05-31T06:04:56.132Z,96.20
2018-05-31T06:07:28.867Z,96.20
2018-05-31T06:09:56.509Z,96.40
2018-05-31T06:12:24.831Z,96.00
2018-05-31T06:14:52.296Z,95.90
2018-05-31T06:17:19.776Z,95.10
2018-05-31T06:19:47.274Z,93.80
2018-05-31T06:22:18.633Z,91.80
2018-05-31T06:24:46.085Z,89.80
2018-05-31T06:27:14.400Z,85.80
2018-05-31T06:29:41.860Z,84.40
2018-05-31T06:32:09.410Z,84.40
2018-05-31T06:34:36.878Z,83.60
2018-05-31T06:37:08.126Z,82.70
2018-05-31T06:39:35.643Z,84.50
2018-05-31T06:42:03.884Z,86.80
2018-05-31T06:44:31.348Z,88.70
2018-05-31T06:46:58.812Z,90.50
2018-05-31T06:49:26.301Z,91.60
2018-05-31T06:51:53.768Z,92.90
2018-05-31T06:54:27.548Z,94.40
2018-05-31T06:56:55.009Z,94.30
2018-05-31T06:59:23.205Z,95.00
2018-05-31T07:01:50.664Z,96.10
2018-05-31T07:04:18.155Z,96.40
2018-05-31T07:06:45.669Z,96.50
2018-05-31T07:09:13.139Z,96.80
2018-05-31T07:11:40.600Z,96.40
2018-05-31T07:14:08.844Z,96.60
2018-05-31T07:16:37.236Z,96.60
2018-05-31T07:19:04.704Z,97.00
2018-05-31T07:21:32.168Z,96.70
2018-05-31T07:24:03.090Z,96.40
2018-05-31T07:26:30.540Z,96.50
2018-05-31T07:28:58.023Z,97.00
2018-05-31T07:31:25.516Z,97.20
2018-05-31T07:33:53.075Z,97.30
2018-05-31T07:36:22.285Z,97.30
2018-05-31T07:38:49.747Z,97.30
2018-05-31T07:41:17.232Z,97.00
2018-05-31T07:43:44.804Z,97.20
2018-05-31T07:46:13.316Z,96.90
2018-05-31T07:48:40.875Z,96.90
2018-05-31T07:51:08.348Z,96.70
2018-05-31T07:53:39.399Z,97.10
2018-05-31T07:56:06.894Z,97.10
2018-05-31T07:58:35.161Z,97.40
2018-05-31T08:01:02.828Z,97.90
2018-05-31T08:03:30.316Z,96.50
2018-05-31T08:05:57.857Z,96.60
2018-05-31T08:08:25.249Z,96.60
2018-05-31T08:10:52.728Z,96.30
2018-05-31T08:13:20.197Z,96.10
2018-05-31T08:15:49.381Z,96.20
2018-05-31T08:18:17.075Z,96.20
2018-05-31T08:20:44.530Z,96.40
2018-05-31T08:23:20.369Z,96.80
2018-05-31T08:25:47.844Z,97.00
2018-05-31T08:28:15.330Z,96.90
2018-05-31T08:30:42.779Z,96.30
2018-05-31T08:33:10.340Z,96.50
2018-05-31T08:35:39.499Z,96.70
2018-05-31T08:38:06.961Z,96.60
2018-05-31T08:40:35.971Z,95.80
2018-05-31T08:43:03.586Z,96.10
2018-05-31T08:45:31.078Z,95.80
2018-05-31T08:47:58.581Z,95.50
2018-05-31T08:50:26.038Z,94.70
2018-05-31T08:52:53.521Z,94.90
2018-05-31T08:55:21.040Z,95.10
2018-05-31T08:57:48.560Z,95.40
2018-05-31T09:00:16.213Z,95.10
2018-05-31T09:02:43.691Z,95.40
2018-05-31T09:05:12.804Z,94.50
2018-05-31T09:07:40.280Z,94.50
2018-05-31T09:10:07.728Z,95.20
2018-05-31T09:12:35.213Z,95.70
2018-05-31T09:15:02.934Z,95.60
2018-05-31T09:17:31.612Z,94.70
2018-05-31T09:19:59.081Z,94.70
2018-05-31T09:22:26.558Z,94.50
2018-05-31T09:24:58.583Z,95.10
2018-05-31T09:27:27.225Z,94.40
2018-05-31T09:29:54.742Z,94.40
2018-05-31T09:32:22.979Z,94.70
2018-05-31T09:34:50.447Z,94.70
2018-05-31T09:37:17.943Z,94.30
2018-05-31T09:39:45.383Z,93.40
2018-05-31T09:42:12.868Z,93.30
2018-05-31T09:44:40.344Z,93.20
2018-05-31T09:47:07.828Z,94.40
2018-05-31T09:49:35.299Z,93.30
2018-05-31T09:52:02.801Z,93.50
2018-05-31T09:54:33.804Z,93.60
2018-05-31T09:57:01.300Z,93.40
2018-05-31T09:59:28.932Z,93.40
2018-05-31T10:01:57.163Z,94.10
2018-05-31T10:04:24.764Z,94.00
2018-05-31T10:06:52.229Z,94.00
2018-05-31T10:09:19.977Z,93.40
2018-05-31T10:11:48.344Z,93.70
2018-05-31T10:14:15.804Z,93.70
2018-05-31T10:16:43.522Z,93.50
2018-05-31T10:19:11.029Z,93.60
2018-05-31T10:21:38.489Z,93.40
2018-05-31T10:24:06.002Z,93.40
2018-05-31T10:26:33.465Z,93.20
2018-05-31T10:29:02.597Z,93.40
2018-05-31T10:31:30.080Z,93.00
2018-05-31T10:33:58.296Z,92.50
2018-05-31T10:36:26.722Z,92.40
2018-05-31T10:38:54.210Z,92.70
2018-05-31T10:41:21.689Z,92.40
2018-05-31T10:43:49.173Z,91.90
2018-05-31T10:46:16.880Z,91.20
2018-05-31T10:48:44.624Z,91.50
2018-05-31T10:51:12.095Z,91.50
2018-05-31T10:53:40.337Z,90.90
2018-05-31T10:56:12.247Z,90.60
2018-05-31T10:58:40.717Z,91.50
2018-05-31T11:01:08.228Z,89.90
2018-05-31T11:03:35.975Z,88.60
2018-05-31T11:06:03.474Z,88.80
2018-05-31T11:08:30.981Z,88.80
2018-05-31T11:10:58.455Z,87.90
2018-05-31T11:13:30.170Z,85.20
2018-05-31T11:16:02.350Z,85.10
2018-05-31T11:18:30.813Z,84.70
2018-05-31T11:20:58.329Z,85.00
2018-05-31T11:23:25.840Z,85.20
2018-05-31T11:25:53.336Z,85.40
2018-05-31T11:28:20.784Z,86.20
2018-05-31T11:30:48.238Z,86.20
2018-05-31T11:33:15.748Z,85.80
2018-05-31T11:35:43.261Z,85.70
2018-05-31T11:38:10.743Z,86.00
2018-05-31T11:40:39.136Z,85.60
2018-05-31T11:43:09.969Z,84.60
2018-05-31T11:45:37.431Z,85.00
2018-05-31T11:48:04.898Z,85.10
2018-05-31T11:50:32.376Z,83.40
2018-05-31T11:52:59.853Z,83.00
2018-05-31T11:55:27.310Z,83.70
2018-05-31T11:57:55.024Z,83.80
2018-05-31T12:00:23.978Z,83.10
2018-05-31T12:02:51.564Z,83.00
2018-05-31T12:05:19.030Z,81.60
2018-05-31T12:07:46.496Z,84.20
2018-05-31T12:10:14.196Z,81.90
2018-05-31T12:12:42.940Z,78.10
2018-05-31T12:15:10.417Z,78.00
2018-05-31T12:17:37.909Z,79.50
2018-05-31T12:20:05.347Z,77.00
2018-05-31T12:22:33.083Z,75.00
2018-05-31T12:25:01.221Z,71.70
2018-05-31T12:27:32.746Z,71.00
2018-05-31T12:30:00.247Z,70.70
2018-05-31T12:32:27.732Z,72.00
2018-05-31T12:34:56.113Z,71.20
2018-05-31T12:37:23.642Z,70.70
2018-05-31T12:39:51.124Z,69.90
2018-05-31T12:42:21.844Z,70.10
2018-05-31T12:44:49.309Z,68.60
2018-05-31T12:47:16.857Z,68.70
2018-05-31T12:49:44.348Z,66.80
2018-05-31T12:52:11.882Z,64.90
2018-05-31T12:54:40.317Z,63.30
2018-05-31T12:57:08.715Z,64.70
2018-05-31T12:59:36.239Z,65.10
2018-05-31T13:02:03.753Z,63.50
2018-05-31T13:04:31.245Z,61.40
2018-05-31T13:07:00.419Z,58.70
2018-05-31T13:09:27.944Z,58.60
2018-05-31T13:11:59.261Z,59.90
2018-05-31T13:14:29.873Z,58.10
2018-05-31T13:16:57.352Z,58.70
2018-05-31T13:19:24.863Z,58.20
2018-05-31T13:21:52.324Z,57.20
2018-05-31T13:24:20.580Z,56.80
2018-05-31T13:26:48.261Z,56.80
2018-05-31T13:29:15.716Z,56.70
2018-05-31T13:31:44.149Z,55.50
2018-05-31T13:34:11.611Z,56.70
2018-05-31T13:36:39.102Z,56.90
2018-05-31T13:39:06.622Z,56.50
2018-05-31T13:41:34.208Z,54.30
2018-05-31T13:44:01.741Z,54.70
2018-05-31T13:46:29.324Z,53.30
2018-05-31T13:48:57.580Z,53.50
2018-05-31T13:51:25.070Z,56.30
2018-05-31T13:53:52.563Z,55.50
2018-05-31T13:56:20.829Z,57.40
2018-05-31T13:58:51.891Z,57.40
2018-05-31T14:01:20.170Z,60.40
2018-05-31T14:03:47.766Z,60.30
2018-05-31T14:06:15.239Z,62.00
2018-05-31T14:08:42.722Z,62.30
2018-05-31T14:11:11.931Z,62.50
2018-05-31T14:13:39.441Z,62.50
2018-05-31T14:16:11.232Z,62.50
2018-05-31T14:18:39.540Z,61.70
2018-05-31T14:21:07.165Z,61.70
2018-05-31T14:23:34.972Z,61.80
2018-05-31T14:26:02.536Z,62.30
2018-05-31T14:28:30.060Z,63.20
2018-05-31T14:30:57.585Z,61.60
2018-05-31T14:33:26.776Z,61.50
2018-05-31T14:35:54.326Z,61.40
2018-05-31T14:38:21.863Z,59.50
2018-05-31T14:40:49.400Z,59.20
2018-05-31T14:43:16.895Z,59.70
2018-05-31T14:45:51.838Z,58.30
2018-05-31T14:48:19.727Z,58.50
2018-05-31T14:50:47.266Z,60.60
2018-05-31T14:53:14.991Z,59.30
2018-05-31T14:55:42.573Z,59.20
2018-05-31T14:58:10.426Z,60.20
2018-05-31T15:00:37.938Z,59.70
2018-05-31T15:03:05.434Z,58.00
2018-05-31T15:05:33.709Z,60.00
2018-05-31T15:08:01.206Z,59.90
2018-05-31T15:10:29.469Z,59.20
2018-05-31T15:12:57.037Z,58.70
2018-05-31T15:15:24.500Z,58.90
2018-05-31T15:17:52.321Z,58.40
2018-05-31T15:20:20.595Z,62.30
2018-05-31T15:22:49.839Z,63.40
2018-05-31T15:25:17.320Z,63.40
2018-05-31T15:27:44.842Z,64.50
2018-05-31T15:30:15.980Z,65.80
2018-05-31T15:35:17.753Z,66.90
2018-05-31T15:37:45.290Z,65.90
2018-05-31T15:40:14.512Z,65.20
2018-05-31T15:42:42.026Z,65.20
2018-05-31T15:45:09.564Z,65.30
2018-05-31T15:47:37.074Z,65.20
2018-05-31T15:50:05.315Z,66.90
2018-05-31T15:52:33.073Z,66.90
2018-05-31T15:55:00.623Z,66.70
2018-05-31T15:57:28.540Z,67.20
2018-05-31T15:59:55.989Z,67.70
2018-05-31T16:02:24.274Z,68.40
2018-05-31T16:04:54.010Z,69.50
2018-05-31T16:07:21.476Z,69.50
2018-05-31T16:09:48.981Z,71.40
2018-05-31T16:12:18.180Z,73.20
2018-05-31T16:14:45.657Z,73.10
2018-05-31T16:17:13.115Z,74.10
2018-05-31T16:19:40.610Z,75.30
2018-05-31T16:22:08.084Z,76.20
2018-05-31T16:24:35.552Z,76.50
2018-05-31T16:27:03.902Z,76.10
2018-05-31T16:29:31.413Z,76.70
2018-05-31T16:31:59.637Z,78.40
2018-05-31T16:34:27.121Z,78.30
2018-05-31T16:36:54.592Z,80.00
2018-05-31T16:39:22.066Z,77.00
2018-05-31T16:41:49.614Z,76.40
2018-05-31T16:44:17.173Z,76.00
2018-05-31T16:46:49.917Z,75.60
2018-05-31T16:49:17.424Z,75.20
2018-05-31T16:51:46.535Z,75.90
2018-05-31T16:54:14.030Z,75.90
2018-05-31T16:56:42.354Z,77.50
2018-05-31T16:59:10.419Z,77.50
2018-05-31T17:01:41.454Z,76.90
2018-05-31T17:04:10.629Z,79.40
2018-05-31T17:06:38.141Z,79.40
2018-05-31T17:09:05.645Z,80.20
2018-05-31T17:11:33.101Z,79.70
2018-05-31T17:14:00.580Z,80.40
2018-05-31T17:16:28.958Z,80.60
2018-05-31T17:18:56.436Z,80.20
2018-05-31T17:21:24.709Z,80.00
2018-05-31T17:23:52.476Z,83.80
2018-05-31T17:26:19.930Z,87.40
2018-05-31T17:28:47.448Z,89.00
2018-05-31T17:31:15.139Z,90.10
2018-05-31T17:33:44.358Z,90.70
2018-05-31T17:36:11.880Z,90.70
2018-05-31T17:38:39.361Z,90.70
2018-05-31T17:41:08.345Z,90.30
2018-05-31T17:43:37.172Z,91.10
2018-05-31T17:46:04.633Z,91.10
2018-05-31T17:48:35.438Z,92.30
2018-05-31T17:51:04.613Z,94.90
2018-05-31T17:53:32.055Z,94.90
2018-05-31T17:55:59.585Z,96.00
2018-05-31T17:58:27.057Z,97.20
2018-05-31T18:00:54.521Z,98.70
2018-05-31T18:03:22.915Z,99.90
2018-05-31T18:05:50.395Z,99.90
2018-05-31T18:08:17.866Z,99.90
2018-05-31T18:10:46.144Z,99.90
2018-05-31T18:13:13.627Z,99.90
2018-05-31T18:15:42.882Z,99.90
2018-05-31T18:18:14.965Z,99.90
2018-05-31T18:20:46.712Z,99.90
2018-05-31T18:23:15.034Z,99.90
2018-05-31T18:25:43.116Z,99.90
2018-05-31T18:28:10.613Z,99.90
2018-05-31T18:30:38.884Z,99.90
2018-05-31T18:33:09.739Z,99.90
2018-05-31T18:35:38.124Z,99.90
2018-05-31T18:38:05.666Z,99.90
2018-05-31T18:40:33.117Z,99.90
2018-05-31T18:43:00.624Z,99.90
2018-05-31T18:45:28.096Z,99.90
2018-05-31T18:47:55.653Z,99.90
2018-05-31T18:50:35.340Z,99.90
2018-05-31T18:53:02.879Z,99.90
2018-05-31T18:55:30.371Z,99.90
2018-05-31T18:57:58.693Z,99.90
2018-05-31T19:00:26.175Z,99.90
2018-05-31T19:02:53.668Z,99.90
2018-05-31T19:05:24.791Z,99.90
2018-05-31T19:07:52.251Z,99.90
2018-05-31T19:10:19.813Z,99.90
2018-05-31T19:12:53.861Z,99.90
2018-05-31T19:15:21.769Z,99.90
2018-05-31T19:17:48.878Z,99.90
2018-05-31T19:20:19.143Z,99.90
2018-05-31T19:22:46.612Z,99.90
2018-05-31T19:25:19.824Z,99.90
2018-05-31T19:27:47.299Z,99.90
2018-05-31T19:30:20.367Z,99.90
2018-05-31T19:32:47.904Z,99.90
2018-05-31T19:35:21.009Z,99.90
2018-05-31T19:37:48.528Z,99.90
2018-05-31T19:40:16.029Z,99.90
2018-05-31T19:42:49.192Z,99.90
2018-05-31T19:45:16.675Z,99.90
2018-05-31T19:47:44.468Z,99.90
2018-05-31T19:50:15.472Z,99.90
2018-05-31T19:52:48.669Z,99.90
2018-05-31T19:55:16.167Z,99.90
2018-05-31T19:57:49.369Z,99.90
2018-05-31T20:00:22.511Z,99.90
2018-05-31T20:02:56.314Z,99.90
2018-05-31T20:05:23.783Z,99.90
2018-05-31T20:07:51.295Z,99.90
2018-05-31T20:10:18.774Z,99.90
2018-05-31T20:12:46.335Z,99.90
2018-05-31T20:15:13.833Z,99.90
2018-05-31T20:17:41.323Z,99.90
2018-05-31T20:20:12.677Z,99.90
2018-05-31T20:22:40.133Z,99.90
2018-05-31T20:25:07.625Z,99.90
2018-05-31T20:27:35.093Z,99.90
2018-05-31T20:30:03.331Z,99.90
2018-05-31T20:32:30.832Z,99.90
2018-05-31T20:34:58.296Z,99.90
2018-05-31T20:37:27.261Z,99.90
2018-05-31T20:39:54.759Z,99.90
2018-05-31T20:42:22.200Z,99.90
2018-05-31T20:44:49.693Z,99.90
2018-05-31T20:47:17.140Z,99.90
2018-05-31T20:49:45.421Z,99.90
2018-05-31T20:52:12.918Z,99.90
2018-05-31T20:54:40.429Z,99.90
2018-05-31T20:57:07.936Z,99.90
2018-05-31T20:59:35.624Z,99.90
2018-05-31T21:02:03.072Z,99.90
2018-05-31T21:04:30.572Z,99.90
2018-05-31T21:07:01.220Z,99.90
2018-05-31T21:09:30.247Z,99.90
2018-05-31T21:11:57.801Z,99.90
2018-05-31T21:14:26.091Z,99.90
2018-05-31T21:16:54.433Z,99.90
2018-05-31T21:19:22.212Z,99.90
2018-05-31T21:21:50.596Z,99.90
2018-05-31T21:24:19.029Z,99.90
2018-05-31T21:26:46.639Z,99.90
2018-05-31T21:29:14.915Z,99.90
2018-05-31T21:31:42.364Z,99.90
2018-05-31T21:34:09.822Z,99.90
2018-05-31T21:36:42.095Z,99.90
2018-05-31T21:39:10.335Z,99.90
2018-05-31T21:41:38.140Z,99.90
2018-05-31T21:44:05.589Z,99.90
2018-05-31T21:46:34.171Z,99.90
2018-05-31T21:49:01.629Z,99.90
2018-05-31T21:51:33.064Z,99.90
2018-05-31T21:54:00.606Z,99.90
2018-05-31T21:56:28.373Z,99.90
2018-05-31T21:58:55.930Z,99.90
2018-05-31T22:01:23.387Z,99.90
2018-05-31T22:03:50.884Z,99.90
2018-05-31T22:06:19.360Z,99.90
2018-05-31T22:08:47.395Z,99.90
2018-05-31T22:11:14.861Z,99.90
2018-05-31T22:13:42.334Z,99.90
2018-05-31T22:16:09.856Z,99.90
2018-05-31T22:18:37.316Z,99.90
2018-05-31T22:21:04.815Z,99.90
2018-05-31T22:23:32.476Z,99.90
2018-05-31T22:26:01.765Z,99.90
2018-05-31T22:28:29.260Z,99.90
2018-05-31T22:30:56.711Z,99.90
2018-05-31T22:33:24.212Z,99.90
2018-05-31T22:35:51.694Z,99.90
2018-05-31T22:38:22.649Z,99.90
2018-05-31T22:40:50.231Z,99.90
2018-05-31T22:43:18.515Z,99.90
2018-05-31T22:45:46.732Z,99.90
2018-05-31T22:48:14.193Z,99.90
2018-05-31T22:50:41.679Z,99.90
2018-05-31T22:53:09.688Z,99.90
2018-05-31T22:55:37.153Z,99.90
2018-05-31T22:58:04.732Z,99.90
2018-05-31T23:00:32.391Z,99.90
2018-05-31T23:02:59.904Z,99.90
2018-05-31T23:05:27.344Z,99.90
2018-05-31T23:07:58.672Z,99.90
2018-05-31T23:10:26.144Z,99.90
2018-05-31T23:12:53.852Z,99.90
2018-05-31T23:15:21.352Z,99.90
2018-05-31T23:17:48.803Z,99.90
2018-05-31T23:20:16.270Z,99.90
2018-05-31T23:22:43.952Z,99.90
2018-05-31T23:25:11.408Z,99.90
2018-05-31T23:27:38.879Z,99.90
2018-05-31T23:30:07.059Z,99.90
2018-05-31T23:32:34.549Z,99.90
2018-05-31T23:35:02.053Z,99.90
2018-05-31T23:37:29.610Z,99.90
2018-05-31T23:39:57.063Z,99.90
2018-05-31T23:42:24.544Z,99.90
2018-05-31T23:44:52.021Z,99.90
2018-05-31T23:47:19.508Z,99.90
2018-05-31T23:49:46.987Z,99.90
2018-05-31T23:52:15.380Z,99.90
2018-05-31T23:54:46.014Z,99.90
2018-05-31T23:57:13.476Z,99.90
2018-05-31T23:59:41.730Z,99.90
